createdAt,value
2018-12-09T00:01:08.059Z,99.90
2018-12-09T00:03:41.762Z,99.90
2018-12-09T00:06:14.450Z,99.90
2018-12-09T00:08:47.071Z,99.90
2018-12-09T00:11:20.277Z,99.90
2018-12-09T00:13:52.925Z,99.90
2018-12-09T00:16:25.922Z,99.90
2018-12-09T00:18:58.422Z,99.90
2018-12-09T00:21:30.806Z,99.90
2018-12-09T00:24:03.095Z,99.90
2018-12-09T00:26:35.984Z,99.90
2018-12-09T00:29:08.847Z,99.90
2018-12-09T00:31:41.220Z,99.90
2018-12-09T00:34:14.015Z,99.90
2018-12-09T00:36:51.016Z,99.90
2018-12-09T00:39:23.530Z,99.90
2018-12-09T00:41:56.377Z,99.90
2018-12-09T00:44:29.177Z,99.90
2018-12-09T00:47:01.500Z,99.90
2018-12-09T00:49:38.621Z,99.90
2018-12-09T00:52:11.310Z,99.90
2018-12-09T00:54:43.568Z,99.90
2018-12-09T00:57:16.643Z,99.90
2018-12-09T00:59:48.908Z,99.90
2018-12-09T01:02:21.219Z,99.90
2018-12-09T01:04:53.567Z,99.90
2018-12-09T01:07:26.554Z,99.90
2018-12-09T01:09:58.885Z,99.90
2018-12-09T01:12:31.342Z,99.90
2018-12-09T01:15:03.693Z,99.90
2018-12-09T01:17:37.092Z,99.90
2018-12-09T01:20:10.878Z,99.90
2018-12-09T01:22:43.292Z,99.90
2018-12-09T01:25:15.568Z,99.90
2018-12-09T01:27:47.913Z,99.90
2018-12-09T01:30:20.749Z,99.90
2018-12-09T01:32:53.609Z,99.90
2018-12-09T01:35:26.746Z,99.90
2018-12-09T01:38:04.393Z,99.90
2018-12-09T01:40:41.157Z,99.90
2018-12-09T01:43:13.866Z,99.90
2018-12-09T01:45:46.199Z,99.90
2018-12-09T01:48:18.550Z,99.90
2018-12-09T01:50:51.273Z,99.90
2018-12-09T01:53:37.203Z,99.90
2018-12-09T01:56:09.930Z,99.90
2018-12-09T01:58:42.560Z,99.90
2018-12-09T02:01:15.022Z,99.90
2018-12-09T02:03:47.861Z,99.90
2018-12-09T02:06:20.261Z,99.90
2018-12-09T02:08:53.434Z,99.90
2018-12-09T02:11:26.453Z,99.90
2018-12-09T02:13:59.074Z,99.90
2018-12-09T02:16:32.132Z,99.90
2018-12-09T02:19:44.045Z,99.90
2018-12-09T02:22:18.476Z,99.90
2018-12-09T02:24:57.126Z,99.90
2018-12-09T02:27:30.021Z,99.90
2018-12-09T02:30:07.539Z,99.90
2018-12-09T02:32:40.752Z,99.90
2018-12-09T02:35:13.716Z,99.90
2018-12-09T02:37:46.526Z,99.90
2018-12-09T02:40:19.440Z,99.90
2018-12-09T02:42:52.225Z,99.90
2018-12-09T02:45:25.178Z,99.90
2018-12-09T02:47:58.192Z,99.90
2018-12-09T02:50:31.380Z,99.90
2018-12-09T02:53:04.233Z,99.90
2018-12-09T02:55:37.502Z,99.90
2018-12-09T02:58:09.965Z,99.90
2018-12-09T03:00:42.315Z,99.90
2018-12-09T03:03:14.738Z,99.90
2018-12-09T03:05:47.303Z,99.90
2018-12-09T03:08:19.699Z,99.90
2018-12-09T03:10:52.097Z,99.90
2018-12-09T03:13:24.818Z,99.90
2018-12-09T03:15:57.173Z,99.90
2018-12-09T03:18:29.891Z,99.90
2018-12-09T03:21:02.489Z,99.90
2018-12-09T03:23:35.670Z,99.90
2018-12-09T03:26:12.198Z,99.90
2018-12-09T03:28:45.238Z,99.90
2018-12-09T03:31:19.275Z,99.90
2018-12-09T03:33:52.170Z,99.90
2018-12-09T03:37:27.427Z,99.90
2018-12-09T03:40:00.796Z,99.90
2018-12-09T03:42:33.870Z,99.90
2018-12-09T03:45:06.405Z,99.90
2018-12-09T03:47:39.447Z,99.90
2018-12-09T03:50:12.833Z,99.90
2018-12-09T03:52:45.230Z,99.90
2018-12-09T03:55:18.325Z,99.90
2018-12-09T03:57:51.901Z,99.90
2018-12-09T04:00:31.613Z,99.90
2018-12-09T04:03:22.444Z,99.90
2018-12-09T04:05:55.422Z,99.90
2018-12-09T04:08:27.942Z,99.90
2018-12-09T04:11:00.387Z,99.90
2018-12-09T04:13:33.034Z,99.90
2018-12-09T04:16:05.603Z,99.90
2018-12-09T04:18:38.696Z,99.90
2018-12-09T04:21:11.102Z,99.90
2018-12-09T04:23:43.686Z,99.90
2018-12-09T04:26:20.010Z,99.90
2018-12-09T04:28:52.996Z,99.90
2018-12-09T04:31:25.900Z,99.90
2018-12-09T04:33:59.127Z,99.90
2018-12-09T04:36:32.001Z,99.90
2018-12-09T04:39:04.951Z,99.90
2018-12-09T04:41:38.080Z,99.90
2018-12-09T04:44:11.210Z,99.90
2018-12-09T04:46:44.033Z,99.90
2018-12-09T04:49:17.102Z,99.90
2018-12-09T04:51:58.177Z,99.90
2018-12-09T04:54:31.864Z,99.90
2018-12-09T04:57:04.469Z,99.90
2018-12-09T04:59:40.380Z,99.90
2018-12-09T05:02:12.880Z,99.90
2018-12-09T05:04:45.575Z,99.90
2018-12-09T05:07:18.485Z,99.90
2018-12-09T05:09:50.988Z,99.90
2018-12-09T05:12:23.784Z,99.90
2018-12-09T05:14:56.428Z,99.90
2018-12-09T05:17:29.709Z,99.90
2018-12-09T05:20:03.390Z,99.90
2018-12-09T05:22:36.314Z,99.90
2018-12-09T05:25:09.234Z,99.90
2018-12-09T05:27:42.259Z,99.90
2018-12-09T05:30:15.273Z,99.90
2018-12-09T05:32:48.215Z,99.90
2018-12-09T05:35:23.097Z,99.90
2018-12-09T05:37:56.030Z,99.90
2018-12-09T05:40:28.992Z,99.90
2018-12-09T05:43:02.246Z,99.90
2018-12-09T05:45:35.327Z,99.90
2018-12-09T05:48:08.161Z,99.90
2018-12-09T05:50:41.301Z,99.90
2018-12-09T05:53:14.167Z,99.90
2018-12-09T05:55:47.280Z,99.90
2018-12-09T05:58:22.708Z,99.90
2018-12-09T06:00:55.552Z,99.90
2018-12-09T06:03:28.408Z,99.90
2018-12-09T06:06:01.538Z,99.90
2018-12-09T06:08:35.344Z,99.90
2018-12-09T06:11:08.368Z,99.90
2018-12-09T06:13:41.117Z,99.90
2018-12-09T06:16:14.083Z,99.90
2018-12-09T06:18:46.611Z,99.90
2018-12-09T06:21:19.154Z,99.90
2018-12-09T06:23:52.119Z,99.90
2018-12-09T06:26:25.192Z,99.90
2018-12-09T06:28:57.915Z,99.90
2018-12-09T06:31:31.098Z,99.90
2018-12-09T06:34:03.997Z,99.90
2018-12-09T06:36:36.861Z,99.90
2018-12-09T06:39:10.671Z,99.90
2018-12-09T06:41:43.700Z,99.90
2018-12-09T06:44:16.310Z,99.90
2018-12-09T06:46:49.225Z,99.90
2018-12-09T06:49:22.404Z,99.90
2018-12-09T06:51:55.484Z,99.90
2018-12-09T06:54:28.206Z,99.90
2018-12-09T06:57:01.280Z,99.90
2018-12-09T06:59:34.531Z,99.90
2018-12-09T07:02:07.661Z,99.90
2018-12-09T07:04:40.606Z,99.90
2018-12-09T07:07:13.617Z,99.90
2018-12-09T07:09:46.111Z,99.90
2018-12-09T07:12:19.166Z,99.90
2018-12-09T07:14:51.963Z,99.90
2018-12-09T07:17:24.851Z,99.90
2018-12-09T07:19:57.664Z,99.90
2018-12-09T07:22:30.743Z,99.90
2018-12-09T07:25:03.545Z,99.90
2018-12-09T07:27:36.376Z,99.90
2018-12-09T07:30:10.222Z,99.90
2018-12-09T07:32:43.220Z,99.90
2018-12-09T07:35:15.677Z,99.90
2018-12-09T07:37:49.003Z,99.90
2018-12-09T07:40:21.813Z,99.90
2018-12-09T07:42:54.711Z,99.90
2018-12-09T07:45:28.035Z,99.90
2018-12-09T07:48:00.883Z,99.90
2018-12-09T07:50:33.766Z,99.90
2018-12-09T07:53:06.692Z,99.90
2018-12-09T07:55:39.585Z,99.90
2018-12-09T07:58:12.525Z,99.90
2018-12-09T08:00:45.507Z,99.90
2018-12-09T08:03:18.417Z,99.90
2018-12-09T08:05:51.207Z,99.90
2018-12-09T08:08:23.777Z,99.90
2018-12-09T08:10:56.308Z,99.90
2018-12-09T08:13:29.326Z,99.90
2018-12-09T08:16:01.680Z,99.90
2018-12-09T08:18:34.135Z,99.90
2018-12-09T08:21:06.656Z,99.90
2018-12-09T08:23:39.242Z,99.90
2018-12-09T08:26:11.682Z,99.90
2018-12-09T08:28:44.113Z,99.90
2018-12-09T08:31:16.574Z,99.90
2018-12-09T08:33:49.494Z,99.90
2018-12-09T08:36:22.231Z,99.90
2018-12-09T08:38:54.715Z,99.90
2018-12-09T08:41:27.118Z,99.90
2018-12-09T08:43:59.944Z,99.90
2018-12-09T08:46:32.292Z,99.90
2018-12-09T08:49:04.755Z,99.90
2018-12-09T08:51:37.590Z,99.90
2018-12-09T08:54:10.657Z,99.90
2018-12-09T08:56:43.537Z,99.90
2018-12-09T08:59:16.362Z,99.90
2018-12-09T09:01:49.227Z,99.90
2018-12-09T09:04:22.236Z,99.90
2018-12-09T09:06:54.749Z,99.90
2018-12-09T09:09:27.355Z,99.90
2018-12-09T09:12:00.349Z,99.90
2018-12-09T09:14:32.822Z,99.90
2018-12-09T09:17:05.828Z,99.90
2018-12-09T09:19:38.730Z,99.90
2018-12-09T09:22:11.692Z,99.90
2018-12-09T09:24:44.693Z,99.90
2018-12-09T09:27:17.532Z,99.90
2018-12-09T09:29:49.992Z,99.90
2018-12-09T09:32:22.765Z,99.90
2018-12-09T09:34:55.631Z,99.90
2018-12-09T09:37:28.437Z,99.90
2018-12-09T09:40:01.449Z,99.90
2018-12-09T09:42:33.929Z,99.90
2018-12-09T09:45:07.118Z,99.90
2018-12-09T09:47:40.067Z,99.90
2018-12-09T09:50:12.922Z,99.90
2018-12-09T09:52:45.744Z,99.90
2018-12-09T09:56:20.998Z,99.90
2018-12-09T09:58:53.703Z,99.90
2018-12-09T10:01:26.852Z,99.90
2018-12-09T10:03:59.727Z,99.90
2018-12-09T10:06:32.783Z,99.90
2018-12-09T10:09:07.176Z,99.90
2018-12-09T10:11:40.174Z,99.90
2018-12-09T10:14:12.610Z,99.90
2018-12-09T10:16:45.133Z,99.90
2018-12-09T10:19:17.697Z,99.90
2018-12-09T10:21:50.697Z,99.90
2018-12-09T10:24:23.598Z,99.90
2018-12-09T10:26:56.556Z,99.90
2018-12-09T10:29:29.563Z,99.90
2018-12-09T10:32:02.619Z,99.90
2018-12-09T10:34:38.737Z,99.90
2018-12-09T10:37:10.291Z,99.90
2018-12-09T10:39:42.981Z,99.90
2018-12-09T10:42:15.812Z,99.90
2018-12-09T10:44:50.782Z,99.90
2018-12-09T10:47:23.593Z,99.90
2018-12-09T10:49:56.306Z,99.90
2018-12-09T10:52:30.443Z,99.90
2018-12-09T10:55:03.270Z,99.90
2018-12-09T10:57:36.041Z,99.90
2018-12-09T11:00:11.157Z,99.90
2018-12-09T11:02:45.111Z,99.90
2018-12-09T11:05:17.885Z,99.90
2018-12-09T11:07:50.677Z,99.90
2018-12-09T11:10:23.681Z,99.90
2018-12-09T11:12:56.792Z,99.90
2018-12-09T11:15:29.660Z,99.90
2018-12-09T11:18:02.640Z,99.90
2018-12-09T11:20:37.654Z,99.90
2018-12-09T11:23:09.206Z,99.90
2018-12-09T11:25:42.003Z,99.90
2018-12-09T11:28:15.029Z,99.90
2018-12-09T11:30:47.893Z,99.90
2018-12-09T11:33:20.942Z,99.90
2018-12-09T11:35:53.821Z,99.90
2018-12-09T11:38:26.643Z,99.90
2018-12-09T11:40:59.754Z,99.90
2018-12-09T11:43:32.360Z,99.90
2018-12-09T11:46:04.910Z,99.90
2018-12-09T11:48:37.725Z,99.90
2018-12-09T11:51:10.686Z,99.90
2018-12-09T11:53:44.172Z,99.90
2018-12-09T11:56:17.042Z,99.90
2018-12-09T11:58:50.022Z,99.90
2018-12-09T12:01:22.374Z,99.90
2018-12-09T12:03:55.341Z,99.90
2018-12-09T12:06:28.738Z,99.90
2018-12-09T12:09:01.072Z,99.90
2018-12-09T12:11:34.808Z,99.90
2018-12-09T12:14:08.523Z,99.90
2018-12-09T12:16:41.587Z,99.90
2018-12-09T12:19:14.479Z,99.90
2018-12-09T12:21:46.778Z,99.90
2018-12-09T12:24:20.844Z,99.90
2018-12-09T12:26:53.327Z,99.90
2018-12-09T12:29:25.655Z,99.90
2018-12-09T12:31:58.350Z,99.90
2018-12-09T12:34:31.137Z,99.90
2018-12-09T12:37:03.827Z,99.90
2018-12-09T12:39:36.146Z,99.90
2018-12-09T12:42:08.396Z,99.90
2018-12-09T12:44:41.400Z,99.90
2018-12-09T12:47:13.781Z,99.90
2018-12-09T12:49:46.211Z,99.90
2018-12-09T12:52:19.192Z,99.90
2018-12-09T12:54:52.139Z,99.90
2018-12-09T12:57:24.854Z,99.90
2018-12-09T12:59:57.614Z,99.90
2018-12-09T13:02:30.562Z,99.90
2018-12-09T13:05:03.138Z,99.90
2018-12-09T13:14:35.747Z,99.90
2018-12-09T13:17:08.110Z,99.90
2018-12-09T13:19:40.357Z,99.90
2018-12-09T13:22:15.959Z,99.90
2018-12-09T13:24:48.287Z,99.90
2018-12-09T13:27:21.336Z,99.90
2018-12-09T13:29:53.642Z,99.90
2018-12-09T13:32:42.315Z,99.90
2018-12-09T13:35:17.408Z,99.90
2018-12-09T13:37:50.752Z,99.90
2018-12-09T13:40:23.700Z,99.90
2018-12-09T13:42:56.566Z,99.90
2018-12-09T13:45:29.550Z,99.90
2018-12-09T13:48:02.390Z,99.90
2018-12-09T13:50:34.754Z,99.90
2018-12-09T13:53:07.341Z,99.90
2018-12-09T13:55:40.055Z,99.90
2018-12-09T13:58:12.838Z,99.90
2018-12-09T14:00:45.699Z,99.90
2018-12-09T14:03:18.403Z,99.90
2018-12-09T14:05:51.111Z,99.90
2018-12-09T14:08:26.114Z,99.90
2018-12-09T14:11:03.271Z,99.90
2018-12-09T14:13:36.864Z,99.90
2018-12-09T14:16:09.681Z,99.90
2018-12-09T14:18:42.615Z,99.90
2018-12-09T14:21:15.284Z,99.90
2018-12-09T14:23:48.078Z,99.90
2018-12-09T14:26:21.028Z,99.90
2018-12-09T14:29:00.256Z,99.90
2018-12-09T14:31:34.194Z,99.90
2018-12-09T14:34:07.176Z,99.90
2018-12-09T14:36:45.604Z,99.90
2018-12-09T14:39:18.494Z,99.90
2018-12-09T14:41:52.913Z,99.90
2018-12-09T14:44:29.345Z,99.90
2018-12-09T14:47:02.399Z,99.90
2018-12-09T14:49:35.588Z,99.90
2018-12-09T14:52:08.922Z,99.90
2018-12-09T14:54:41.933Z,99.90
2018-12-09T14:57:14.996Z,99.90
2018-12-09T14:59:48.159Z,99.90
2018-12-09T15:02:20.846Z,99.90
2018-12-09T15:04:54.588Z,99.90
2018-12-09T15:07:27.081Z,99.90
2018-12-09T15:10:08.469Z,99.90
2018-12-09T15:12:35.878Z,99.90
2018-12-09T15:15:11.734Z,99.90
2018-12-09T15:17:44.514Z,99.90
2018-12-09T15:20:17.281Z,99.90
2018-12-09T15:22:50.322Z,99.90
2018-12-09T15:25:23.122Z,99.90
2018-12-09T15:27:55.850Z,99.90
2018-12-09T15:30:28.473Z,99.90
2018-12-09T15:33:01.279Z,99.90
2018-12-09T15:35:34.218Z,99.90
2018-12-09T15:38:07.324Z,99.90
2018-12-09T15:40:40.136Z,99.90
2018-12-09T15:43:12.966Z,99.90
2018-12-09T15:45:45.880Z,99.90
2018-12-09T15:48:18.623Z,99.90
2018-12-09T15:50:51.745Z,99.90
2018-12-09T15:53:25.068Z,99.90
2018-12-09T15:55:58.298Z,99.90
2018-12-09T15:58:31.231Z,99.90
2018-12-09T16:01:04.273Z,99.90
2018-12-09T16:03:36.800Z,99.90
2018-12-09T16:06:09.789Z,99.90
2018-12-09T16:08:42.792Z,99.90
2018-12-09T16:11:15.431Z,99.90
2018-12-09T16:13:48.411Z,99.90
2018-12-09T16:17:24.268Z,99.90
2018-12-09T16:19:57.280Z,99.90
2018-12-09T16:22:30.089Z,99.90
2018-12-09T16:25:05.409Z,99.90
2018-12-09T16:27:38.239Z,99.90
2018-12-09T16:30:11.743Z,99.90
2018-12-09T16:32:44.346Z,99.90
2018-12-09T16:35:17.477Z,99.90
2018-12-09T16:37:50.306Z,99.90
2018-12-09T16:40:23.143Z,99.90
2018-12-09T16:42:56.478Z,99.90
2018-12-09T16:45:32.786Z,99.90
2018-12-09T16:48:05.748Z,99.90
2018-12-09T16:50:38.822Z,99.90
2018-12-09T16:53:11.931Z,99.90
2018-12-09T16:55:44.690Z,98.80
2018-12-09T16:58:17.714Z,99.40
2018-12-09T17:00:50.488Z,98.30
2018-12-09T17:03:23.169Z,98.70
2018-12-09T17:05:55.781Z,97.80
2018-12-09T17:08:28.607Z,97.60
2018-12-09T17:11:01.245Z,97.00
2018-12-09T17:13:34.011Z,97.30
2018-12-09T17:16:07.072Z,96.00
2018-12-09T17:18:39.774Z,96.10
2018-12-09T17:21:12.355Z,96.20
2018-12-09T17:23:45.419Z,96.50
2018-12-09T17:26:18.067Z,96.20
2018-12-09T17:28:51.222Z,96.20
2018-12-09T17:31:23.915Z,96.10
2018-12-09T17:33:56.772Z,96.20
2018-12-09T17:37:32.139Z,95.80
2018-12-09T17:40:05.060Z,94.70
2018-12-09T17:42:37.735Z,95.00
2018-12-09T17:45:10.607Z,94.70
2018-12-09T17:47:43.937Z,94.90
2018-12-09T17:50:16.834Z,94.40
2018-12-09T17:52:49.548Z,94.20
2018-12-09T17:55:22.331Z,93.80
2018-12-09T17:57:55.068Z,94.00
2018-12-09T18:00:27.812Z,92.80
2018-12-09T18:03:18.285Z,93.70
2018-12-09T18:05:51.238Z,93.40
2018-12-09T18:08:23.972Z,93.50
2018-12-09T18:10:56.996Z,93.70
2018-12-09T18:13:29.838Z,93.30
2018-12-09T18:16:05.266Z,92.70
2018-12-09T18:18:38.137Z,92.50
2018-12-09T18:21:11.093Z,92.30
2018-12-09T18:23:43.356Z,92.00
2018-12-09T18:26:17.437Z,92.10
2018-12-09T18:28:50.529Z,91.60
2018-12-09T18:31:23.775Z,90.90
2018-12-09T18:33:56.431Z,90.40
2018-12-09T18:36:30.410Z,87.60
2018-12-09T18:39:05.034Z,88.30
2018-12-09T18:41:37.895Z,89.50
2018-12-09T18:44:10.822Z,88.20
2018-12-09T18:46:44.059Z,88.30
2018-12-09T18:49:16.827Z,86.60
2018-12-09T18:51:49.709Z,87.10
2018-12-09T18:54:22.490Z,86.30
2018-12-09T18:56:55.295Z,85.30
2018-12-09T18:59:27.835Z,83.60
2018-12-09T19:02:01.291Z,81.40
2018-12-09T19:04:33.947Z,82.50
2018-12-09T19:07:06.570Z,81.70
2018-12-09T19:09:39.776Z,80.60
2018-12-09T19:12:12.967Z,79.80
2018-12-09T19:14:45.698Z,81.00
2018-12-09T19:17:18.503Z,80.90
2018-12-09T19:19:51.038Z,81.60
2018-12-09T19:22:24.056Z,81.80
2018-12-09T19:25:02.058Z,82.10
2018-12-09T19:27:34.842Z,80.20
2018-12-09T19:30:07.491Z,79.60
2018-12-09T19:32:42.437Z,79.60
2018-12-09T19:35:15.188Z,79.00
2018-12-09T19:37:48.194Z,77.60
2018-12-09T19:40:21.035Z,77.60
2018-12-09T19:42:53.968Z,77.60
2018-12-09T19:52:27.006Z,78.70
2018-12-09T19:54:59.748Z,77.60
2018-12-09T19:57:32.263Z,78.30
2018-12-09T20:00:04.999Z,76.30
2018-12-09T20:02:37.895Z,76.60
2018-12-09T20:05:11.790Z,75.00
2018-12-09T20:07:44.652Z,75.50
2018-12-09T20:10:17.187Z,76.00
2018-12-09T20:12:50.060Z,75.30
2018-12-09T20:15:22.935Z,76.50
2018-12-09T20:17:56.180Z,76.30
2018-12-09T20:20:28.859Z,75.50
2018-12-09T20:23:01.403Z,73.60
2018-12-09T20:25:34.157Z,73.70
2018-12-09T20:28:06.791Z,73.10
2018-12-09T20:30:39.839Z,73.00
2018-12-09T20:33:13.188Z,73.60
2018-12-09T20:35:46.944Z,73.20
2018-12-09T20:38:19.529Z,72.20
2018-12-09T20:40:52.209Z,72.20
2018-12-09T20:43:24.982Z,71.90
2018-12-09T20:45:57.865Z,71.10
2018-12-09T20:48:30.757Z,70.70
2018-12-09T20:51:03.641Z,71.40
2018-12-09T20:53:36.359Z,71.70
2018-12-09T20:56:09.117Z,71.30
2018-12-09T20:58:41.790Z,72.10
2018-12-09T21:01:14.497Z,70.90
2018-12-09T21:03:47.361Z,70.30
2018-12-09T21:06:20.453Z,71.10
2018-12-09T21:08:53.045Z,70.70
2018-12-09T21:11:25.818Z,72.30
2018-12-09T21:13:58.382Z,71.10
2018-12-09T21:16:31.027Z,70.70
2018-12-09T21:19:03.549Z,71.90
2018-12-09T21:21:36.260Z,72.10
2018-12-09T21:24:09.007Z,72.20
2018-12-09T21:26:41.906Z,73.00
2018-12-09T21:29:15.073Z,74.10
2018-12-09T21:31:47.994Z,74.50
2018-12-09T21:34:20.536Z,74.50
2018-12-09T21:36:54.034Z,74.70
2018-12-09T21:39:26.829Z,73.20
2018-12-09T21:42:01.218Z,72.50
2018-12-09T21:44:34.641Z,73.00
2018-12-09T21:47:07.466Z,72.60
2018-12-09T21:49:40.980Z,72.30
2018-12-09T21:52:14.105Z,73.50
2018-12-09T21:54:46.866Z,75.60
2018-12-09T21:57:20.882Z,78.00
2018-12-09T21:59:53.611Z,80.60
2018-12-09T22:02:27.292Z,82.10
2018-12-09T22:05:01.395Z,83.30
2018-12-09T22:07:35.031Z,83.40
2018-12-09T22:10:08.196Z,83.70
2018-12-09T22:12:41.789Z,83.20
2018-12-09T22:15:14.410Z,83.30
2018-12-09T22:17:47.624Z,82.70
2018-12-09T22:20:20.253Z,81.20
2018-12-09T22:22:53.117Z,82.00
2018-12-09T22:25:25.814Z,83.20
2018-12-09T22:27:59.323Z,83.90
2018-12-09T22:30:32.663Z,84.50
2018-12-09T22:33:13.961Z,84.10
2018-12-09T22:35:46.467Z,85.00
2018-12-09T22:38:19.174Z,86.20
2018-12-09T22:40:51.473Z,87.60
2018-12-09T22:43:23.802Z,88.60
2018-12-09T22:45:56.206Z,89.70
2018-12-09T22:48:28.468Z,89.80
2018-12-09T22:51:01.792Z,90.00
2018-12-09T22:53:34.451Z,90.20
2018-12-09T22:56:07.805Z,90.60
2018-12-09T22:58:41.449Z,91.00
2018-12-09T23:01:22.419Z,91.00
2018-12-09T23:03:56.291Z,91.10
2018-12-09T23:06:29.000Z,91.30
2018-12-09T23:09:01.978Z,91.10
2018-12-09T23:11:35.312Z,91.10
2018-12-09T23:14:08.230Z,91.40
2018-12-09T23:16:40.903Z,91.60
2018-12-09T23:19:13.661Z,91.70
2018-12-09T23:21:46.332Z,91.90
2018-12-09T23:24:18.846Z,92.00
2018-12-09T23:26:51.376Z,92.10
2018-12-09T23:29:24.132Z,92.30
2018-12-09T23:31:56.872Z,92.40
2018-12-09T23:34:29.881Z,92.60
2018-12-09T23:37:02.644Z,92.70
2018-12-09T23:39:35.527Z,93.20
2018-12-09T23:42:08.313Z,93.10
2018-12-09T23:44:41.061Z,93.40
2018-12-09T23:47:13.694Z,94.00
2018-12-09T23:49:46.499Z,94.50
2018-12-09T23:52:19.071Z,95.00
2018-12-09T23:54:52.169Z,95.30
2018-12-09T23:57:24.873Z,95.70
2018-12-09T23:59:57.606Z,96.30
